sensor_id;sensor_type;location;lat;lon;timestamp;pressure;altitude;pressure_sealevel;temperature;humidity
64521;BME280;50896;46.714;17.322;2023-11-19T00:00:08;101183.47;;;3.31;95.24
64521;BME280;50896;46.714;17.322;2023-11-19T00:02:40;101170.63;;;3.26;97.17
64521;BME280;50896;46.714;17.322;2023-11-19T00:05:09;101167.69;;;3.31;97.59
64521;BME280;50896;46.714;17.322;2023-11-19T00:07:39;101165.84;;;3.33;96.62
64521;BME280;50896;46.714;17.322;2023-11-19T00:10:15;101170.31;;;3.31;95.63
64521;BME280;50896;46.714;17.322;2023-11-19T00:12:47;101170.81;;;3.23;97.91
64521;BME280;50896;46.714;17.322;2023-11-19T00:15:15;101166.13;;;3.28;97.99
64521;BME280;50896;46.714;17.322;2023-11-19T00:17:45;101170.06;;;3.21;99.17
64521;BME280;50896;46.714;17.322;2023-11-19T00:20:13;101163.03;;;3.21;100.00
64521;BME280;50896;46.714;17.322;2023-11-19T00:22:41;101156.09;;;3.20;100.00
64521;BME280;50896;46.714;17.322;2023-11-19T00:25:20;101164.81;;;3.21;100.00
64521;BME280;50896;46.714;17.322;2023-11-19T00:27:49;101175.31;;;3.21;100.00
64521;BME280;50896;46.714;17.322;2023-11-19T00:30:17;101165.66;;;3.21;100.00
64521;BME280;50896;46.714;17.322;2023-11-19T00:32:44;101155.88;;;3.23;100.00
64521;BME280;50896;46.714;17.322;2023-11-19T00:35:12;101156.84;;;3.22;100.00
64521;BME280;50896;46.714;17.322;2023-11-19T00:37:41;101166.28;;;3.25;100.00
64521;BME280;50896;46.714;17.322;2023-11-19T00:40:13;101170.06;;;3.21;100.00
64521;BME280;50896;46.714;17.322;2023-11-19T00:42:42;101153.25;;;3.23;100.00
64521;BME280;50896;46.714;17.322;2023-11-19T00:45:09;101154.38;;;3.19;100.00
64521;BME280;50896;46.714;17.322;2023-11-19T00:47:38;101148.19;;;3.20;100.00
64521;BME280;50896;46.714;17.322;2023-11-19T00:50:06;101154.28;;;3.21;100.00
64521;BME280;50896;46.714;17.322;2023-11-19T00:52:37;101145.56;;;3.20;100.00
64521;BME280;50896;46.714;17.322;2023-11-19T00:55:05;101142.47;;;3.14;100.00
64521;BME280;50896;46.714;17.322;2023-11-19T00:57:32;101146.69;;;3.16;100.00
64521;BME280;50896;46.714;17.322;2023-11-19T00:59:59;101158.16;;;3.15;100.00
64521;BME280;50896;46.714;17.322;2023-11-19T01:02:26;101151.22;;;3.14;100.00
64521;BME280;50896;46.714;17.322;2023-11-19T01:04:55;101161.91;;;3.11;100.00
64521;BME280;50896;46.714;17.322;2023-11-19T01:07:22;101163.13;;;3.05;100.00
64521;BME280;50896;46.714;17.322;2023-11-19T01:09:50;101164.09;;;3.04;100.00
64521;BME280;50896;46.714;17.322;2023-11-19T01:12:17;101154.03;;;2.97;100.00
64521;BME280;50896;46.714;17.322;2023-11-19T01:14:44;101145.34;;;2.96;100.00
64521;BME280;50896;46.714;17.322;2023-11-19T01:17:11;101141.00;;;2.95;100.00
64521;BME280;50896;46.714;17.322;2023-11-19T01:19:38;101142.22;;;2.89;100.00
64521;BME280;50896;46.714;17.322;2023-11-19T01:22:05;101140.00;;;2.83;100.00
64521;BME280;50896;46.714;17.322;2023-11-19T01:24:32;101142.69;;;2.82;100.00
64521;BME280;50896;46.714;17.322;2023-11-19T01:26:59;101148.50;;;2.87;100.00
64521;BME280;50896;46.714;17.322;2023-11-19T01:29:26;101146.38;;;2.79;100.00
64521;BME280;50896;46.714;17.322;2023-11-19T01:31:53;101139.97;;;2.69;100.00
64521;BME280;50896;46.714;17.322;2023-11-19T01:34:20;101131.28;;;2.68;100.00
64521;BME280;50896;46.714;17.322;2023-11-19T01:36:47;101134.91;;;2.80;100.00
64521;BME280;50896;46.714;17.322;2023-11-19T01:39:15;101118.97;;;2.69;100.00
64521;BME280;50896;46.714;17.322;2023-11-19T01:41:47;101119.63;;;2.72;100.00
64521;BME280;50896;46.714;17.322;2023-11-19T01:44:13;101114.09;;;2.77;100.00
64521;BME280;50896;46.714;17.322;2023-11-19T01:46:42;101111.38;;;2.79;100.00
64521;BME280;50896;46.714;17.322;2023-11-19T01:49:10;101105.50;;;2.75;100.00
64521;BME280;50896;46.714;17.322;2023-11-19T01:51:39;101103.69;;;2.76;100.00
64521;BME280;50896;46.714;17.322;2023-11-19T01:54:06;101091.22;;;2.79;100.00
64521;BME280;50896;46.714;17.322;2023-11-19T01:56:35;101095.63;;;2.79;100.00
64521;BME280;50896;46.714;17.322;2023-11-19T01:59:02;101100.13;;;2.77;100.00
64521;BME280;50896;46.714;17.322;2023-11-19T02:01:30;101104.34;;;2.79;100.00
64521;BME280;50896;46.714;17.322;2023-11-19T02:03:59;101090.56;;;2.76;100.00
64521;BME280;50896;46.714;17.322;2023-11-19T02:06:27;101073.97;;;2.75;100.00
64521;BME280;50896;46.714;17.322;2023-11-19T02:08:55;101065.22;;;2.74;100.00
64521;BME280;50896;46.714;17.322;2023-11-19T02:11:22;101068.88;;;2.72;100.00
64521;BME280;50896;46.714;17.322;2023-11-19T02:13:49;101062.06;;;2.69;100.00
64521;BME280;50896;46.714;17.322;2023-11-19T02:16:16;101052.16;;;2.87;100.00
64521;BME280;50896;46.714;17.322;2023-11-19T02:18:42;101055.28;;;2.80;100.00
64521;BME280;50896;46.714;17.322;2023-11-19T02:21:09;101059.16;;;2.74;100.00
64521;BME280;50896;46.714;17.322;2023-11-19T02:23:37;101044.44;;;2.71;100.00
64521;BME280;50896;46.714;17.322;2023-11-19T02:26:29;101040.66;;;2.76;100.00
64521;BME280;50896;46.714;17.322;2023-11-19T02:28:59;101035.44;;;2.61;100.00
64521;BME280;50896;46.714;17.322;2023-11-19T02:31:26;101040.69;;;2.61;100.00
64521;BME280;50896;46.714;17.322;2023-11-19T02:33:54;101032.34;;;2.54;100.00
64521;BME280;50896;46.714;17.322;2023-11-19T02:36:21;101038.25;;;2.58;100.00
64521;BME280;50896;46.714;17.322;2023-11-19T02:38:48;101033.00;;;2.58;100.00
64521;BME280;50896;46.714;17.322;2023-11-19T02:41:15;101025.31;;;2.55;100.00
64521;BME280;50896;46.714;17.322;2023-11-19T02:43:42;101016.81;;;2.51;100.00
64521;BME280;50896;46.714;17.322;2023-11-19T02:46:09;101016.03;;;2.49;100.00
64521;BME280;50896;46.714;17.322;2023-11-19T02:48:38;101001.41;;;2.45;100.00
64521;BME280;50896;46.714;17.322;2023-11-19T02:51:06;101011.44;;;2.53;100.00
64521;BME280;50896;46.714;17.322;2023-11-19T02:53:37;101009.34;;;2.58;100.00
64521;BME280;50896;46.714;17.322;2023-11-19T02:56:05;101018.09;;;2.59;100.00
64521;BME280;50896;46.714;17.322;2023-11-19T02:58:53;101018.19;;;2.57;100.00
64521;BME280;50896;46.714;17.322;2023-11-19T03:01:22;101015.66;;;2.55;100.00
64521;BME280;50896;46.714;17.322;2023-11-19T03:04:00;101025.22;;;2.56;100.00
64521;BME280;50896;46.714;17.322;2023-11-19T03:06:29;101023.91;;;2.64;100.00
64521;BME280;50896;46.714;17.322;2023-11-19T03:08:56;101005.16;;;2.55;100.00
64521;BME280;50896;46.714;17.322;2023-11-19T03:11:24;101027.72;;;2.58;100.00
64521;BME280;50896;46.714;17.322;2023-11-19T03:13:51;101027.47;;;2.63;100.00
64521;BME280;50896;46.714;17.322;2023-11-19T03:16:18;101023.31;;;2.73;100.00
64521;BME280;50896;46.714;17.322;2023-11-19T03:18:45;101015.25;;;2.76;100.00
64521;BME280;50896;46.714;17.322;2023-11-19T03:21:12;101007.19;;;2.79;100.00
64521;BME280;50896;46.714;17.322;2023-11-19T03:23:39;101014.97;;;2.81;100.00
64521;BME280;50896;46.714;17.322;2023-11-19T03:26:07;101012.25;;;2.82;100.00
64521;BME280;50896;46.714;17.322;2023-11-19T03:28:36;101010.34;;;2.84;100.00
64521;BME280;50896;46.714;17.322;2023-11-19T03:31:06;101005.00;;;2.86;100.00
64521;BME280;50896;46.714;17.322;2023-11-19T03:33:36;101012.03;;;2.85;100.00
64521;BME280;50896;46.714;17.322;2023-11-19T03:36:05;100995.34;;;2.86;100.00
64521;BME280;50896;46.714;17.322;2023-11-19T03:38:32;100982.31;;;2.85;100.00
64521;BME280;50896;46.714;17.322;2023-11-19T03:40:59;100978.25;;;2.94;100.00
64521;BME280;50896;46.714;17.322;2023-11-19T03:43:26;100974.28;;;3.01;100.00
64521;BME280;50896;46.714;17.322;2023-11-19T03:45:54;100967.84;;;2.92;100.00
64521;BME280;50896;46.714;17.322;2023-11-19T03:48:21;100963.44;;;2.93;100.00
64521;BME280;50896;46.714;17.322;2023-11-19T03:50:49;100962.69;;;2.90;100.00
64521;BME280;50896;46.714;17.322;2023-11-19T03:53:15;100944.66;;;2.99;100.00
64521;BME280;50896;46.714;17.322;2023-11-19T03:55:42;100930.44;;;3.01;100.00
64521;BME280;50896;46.714;17.322;2023-11-19T03:58:09;100940.03;;;3.02;100.00
64521;BME280;50896;46.714;17.322;2023-11-19T04:00:36;100929.25;;;3.07;100.00
64521;BME280;50896;46.714;17.322;2023-11-19T04:03:03;100928.06;;;3.11;100.00
64521;BME280;50896;46.714;17.322;2023-11-19T04:05:30;100930.06;;;3.07;100.00
64521;BME280;50896;46.714;17.322;2023-11-19T04:07:57;100920.59;;;3.05;100.00
64521;BME280;50896;46.714;17.322;2023-11-19T04:10:24;100925.72;;;2.94;100.00
64521;BME280;50896;46.714;17.322;2023-11-19T04:12:51;100924.03;;;2.93;100.00
64521;BME280;50896;46.714;17.322;2023-11-19T04:15:17;100916.38;;;3.02;100.00
64521;BME280;50896;46.714;17.322;2023-11-19T04:17:45;100906.22;;;3.11;100.00
64521;BME280;50896;46.714;17.322;2023-11-19T04:20:11;100900.22;;;3.08;100.00
64521;BME280;50896;46.714;17.322;2023-11-19T04:22:41;100903.47;;;3.12;100.00
64521;BME280;50896;46.714;17.322;2023-11-19T04:25:08;100891.38;;;3.10;100.00
64521;BME280;50896;46.714;17.322;2023-11-19T04:27:36;100891.81;;;3.03;100.00
64521;BME280;50896;46.714;17.322;2023-11-19T04:30:03;100881.63;;;3.12;100.00
64521;BME280;50896;46.714;17.322;2023-11-19T04:32:31;100890.56;;;3.09;100.00
64521;BME280;50896;46.714;17.322;2023-11-19T04:34:58;100871.50;;;3.05;100.00
64521;BME280;50896;46.714;17.322;2023-11-19T04:37:25;100879.41;;;3.05;100.00
64521;BME280;50896;46.714;17.322;2023-11-19T04:39:51;100874.66;;;2.98;100.00
64521;BME280;50896;46.714;17.322;2023-11-19T04:42:18;100875.72;;;2.95;100.00
64521;BME280;50896;46.714;17.322;2023-11-19T04:44:46;100867.50;;;3.00;100.00
64521;BME280;50896;46.714;17.322;2023-11-19T04:47:13;100869.31;;;2.99;100.00
64521;BME280;50896;46.714;17.322;2023-11-19T04:49:41;100863.84;;;3.02;100.00
64521;BME280;50896;46.714;17.322;2023-11-19T04:52:09;100851.47;;;3.04;100.00
64521;BME280;50896;46.714;17.322;2023-11-19T04:54:40;100852.09;;;3.08;100.00
64521;BME280;50896;46.714;17.322;2023-11-19T04:57:07;100844.41;;;3.05;100.00
64521;BME280;50896;46.714;17.322;2023-11-19T04:59:38;100849.78;;;3.03;100.00
64521;BME280;50896;46.714;17.322;2023-11-19T05:02:05;100845.25;;;3.05;100.00
64521;BME280;50896;46.714;17.322;2023-11-19T05:04:32;100847.97;;;3.04;100.00
64521;BME280;50896;46.714;17.322;2023-11-19T05:06:59;100847.16;;;3.03;100.00
64521;BME280;50896;46.714;17.322;2023-11-19T05:09:26;100856.72;;;3.04;100.00
64521;BME280;50896;46.714;17.322;2023-11-19T05:11:53;100862.69;;;3.06;100.00
64521;BME280;50896;46.714;17.322;2023-11-19T05:14:20;100868.72;;;3.08;100.00
64521;BME280;50896;46.714;17.322;2023-11-19T05:16:48;100868.38;;;3.13;100.00
64521;BME280;50896;46.714;17.322;2023-11-19T05:19:15;100858.91;;;3.11;100.00
64521;BME280;50896;46.714;17.322;2023-11-19T05:21:43;100876.91;;;3.17;100.00
64521;BME280;50896;46.714;17.322;2023-11-19T05:24:10;100871.75;;;3.15;100.00
64521;BME280;50896;46.714;17.322;2023-11-19T05:26:38;100868.38;;;3.13;100.00
64521;BME280;50896;46.714;17.322;2023-11-19T05:29:06;100868.06;;;3.18;100.00
64521;BME280;50896;46.714;17.322;2023-11-19T05:31:33;100851.38;;;3.19;100.00
64521;BME280;50896;46.714;17.322;2023-11-19T05:34:03;100854.00;;;3.19;100.00
64521;BME280;50896;46.714;17.322;2023-11-19T05:36:30;100828.56;;;3.19;100.00
64521;BME280;50896;46.714;17.322;2023-11-19T05:38:57;100837.28;;;3.20;100.00
64521;BME280;50896;46.714;17.322;2023-11-19T05:41:24;100820.66;;;3.19;100.00
64521;BME280;50896;46.714;17.322;2023-11-19T05:43:51;100822.78;;;3.27;100.00
64521;BME280;50896;46.714;17.322;2023-11-19T05:46:18;100818.56;;;3.24;100.00
64521;BME280;50896;46.714;17.322;2023-11-19T05:48:47;100818.34;;;3.28;100.00
64521;BME280;50896;46.714;17.322;2023-11-19T05:51:14;100805.22;;;3.28;100.00
64521;BME280;50896;46.714;17.322;2023-11-19T05:53:42;100803.22;;;3.31;100.00
64521;BME280;50896;46.714;17.322;2023-11-19T05:56:09;100813.53;;;3.34;100.00
64521;BME280;50896;46.714;17.322;2023-11-19T05:58:37;100822.25;;;3.35;100.00
64521;BME280;50896;46.714;17.322;2023-11-19T06:01:04;100810.06;;;3.34;100.00
64521;BME280;50896;46.714;17.322;2023-11-19T06:03:34;100820.03;;;3.41;100.00
64521;BME280;50896;46.714;17.322;2023-11-19T06:06:01;100831.59;;;3.39;100.00
64521;BME280;50896;46.714;17.322;2023-11-19T06:08:28;100828.34;;;3.35;100.00
64521;BME280;50896;46.714;17.322;2023-11-19T06:10:57;100829.41;;;3.46;100.00
64521;BME280;50896;46.714;17.322;2023-11-19T06:13:24;100816.25;;;3.46;100.00
64521;BME280;50896;46.714;17.322;2023-11-19T06:15:52;100808.25;;;3.47;100.00
64521;BME280;50896;46.714;17.322;2023-11-19T06:18:19;100806.25;;;3.51;100.00
64521;BME280;50896;46.714;17.322;2023-11-19T06:20:47;100790.59;;;3.49;100.00
64521;BME280;50896;46.714;17.322;2023-11-19T06:23:16;100791.97;;;3.55;100.00
64521;BME280;50896;46.714;17.322;2023-11-19T06:25:43;100800.78;;;3.54;100.00
64521;BME280;50896;46.714;17.322;2023-11-19T06:28:10;100797.09;;;3.56;100.00
64521;BME280;50896;46.714;17.322;2023-11-19T06:30:37;100798.47;;;3.62;100.00
64521;BME280;50896;46.714;17.322;2023-11-19T06:33:04;100801.72;;;3.66;100.00
64521;BME280;50896;46.714;17.322;2023-11-19T06:35:30;100805.41;;;3.63;100.00
64521;BME280;50896;46.714;17.322;2023-11-19T06:38:03;100793.72;;;3.67;100.00
64521;BME280;50896;46.714;17.322;2023-11-19T06:40:34;100787.84;;;3.64;100.00
64521;BME280;50896;46.714;17.322;2023-11-19T06:43:04;100788.88;;;3.61;100.00
64521;BME280;50896;46.714;17.322;2023-11-19T06:45:31;100783.81;;;3.71;100.00
64521;BME280;50896;46.714;17.322;2023-11-19T06:48:01;100776.03;;;3.69;100.00
64521;BME280;50896;46.714;17.322;2023-11-19T06:50:33;100768.16;;;3.69;100.00
64521;BME280;50896;46.714;17.322;2023-11-19T06:53:00;100772.88;;;3.77;100.00
64521;BME280;50896;46.714;17.322;2023-11-19T06:55:27;100781.91;;;3.86;100.00
64521;BME280;50896;46.714;17.322;2023-11-19T06:57:54;100776.00;;;3.95;100.00
64521;BME280;50896;46.714;17.322;2023-11-19T07:00:21;100767.75;;;4.00;100.00
64521;BME280;50896;46.714;17.322;2023-11-19T07:02:48;100772.44;;;4.07;100.00
64521;BME280;50896;46.714;17.322;2023-11-19T07:05:17;100762.44;;;4.13;100.00
64521;BME280;50896;46.714;17.322;2023-11-19T07:07:44;100775.59;;;4.13;100.00
64521;BME280;50896;46.714;17.322;2023-11-19T07:10:13;100788.75;;;4.13;100.00
64521;BME280;50896;46.714;17.322;2023-11-19T07:12:40;100786.00;;;4.14;100.00
64521;BME280;50896;46.714;17.322;2023-11-19T07:15:07;100774.31;;;4.18;100.00
64521;BME280;50896;46.714;17.322;2023-11-19T07:17:35;100786.50;;;4.19;100.00
64521;BME280;50896;46.714;17.322;2023-11-19T07:20:03;100781.38;;;4.18;100.00
64521;BME280;50896;46.714;17.322;2023-11-19T07:22:31;100775.34;;;4.16;100.00
64521;BME280;50896;46.714;17.322;2023-11-19T07:24:58;100776.00;;;4.19;100.00
64521;BME280;50896;46.714;17.322;2023-11-19T07:27:25;100766.41;;;4.18;100.00
64521;BME280;50896;46.714;17.322;2023-11-19T07:29:52;100782.59;;;4.25;100.00
64521;BME280;50896;46.714;17.322;2023-11-19T07:32:19;100774.81;;;4.23;100.00
64521;BME280;50896;46.714;17.322;2023-11-19T07:34:46;100785.00;;;4.28;100.00
64521;BME280;50896;46.714;17.322;2023-11-19T07:37:13;100787.63;;;4.28;100.00
64521;BME280;50896;46.714;17.322;2023-11-19T07:39:39;100776.16;;;4.29;100.00
64521;BME280;50896;46.714;17.322;2023-11-19T07:42:08;100769.88;;;4.43;100.00
64521;BME280;50896;46.714;17.322;2023-11-19T07:44:36;100758.00;;;4.37;100.00
64521;BME280;50896;46.714;17.322;2023-11-19T07:47:04;100770.34;;;4.37;100.00
64521;BME280;50896;46.714;17.322;2023-11-19T07:49:31;100771.41;;;4.34;100.00
64521;BME280;50896;46.714;17.322;2023-11-19T07:51:58;100779.56;;;4.42;100.00
64521;BME280;50896;46.714;17.322;2023-11-19T07:54:25;100766.34;;;4.31;100.00
64521;BME280;50896;46.714;17.322;2023-11-19T07:56:52;100765.44;;;4.43;100.00
64521;BME280;50896;46.714;17.322;2023-11-19T07:59:19;100769.63;;;4.46;100.00
64521;BME280;50896;46.714;17.322;2023-11-19T08:01:46;100763.06;;;4.52;100.00
64521;BME280;50896;46.714;17.322;2023-11-19T08:04:13;100762.59;;;4.47;100.00
64521;BME280;50896;46.714;17.322;2023-11-19T08:06:40;100744.75;;;4.50;100.00
64521;BME280;50896;46.714;17.322;2023-11-19T08:09:07;100730.16;;;4.46;100.00
64521;BME280;50896;46.714;17.322;2023-11-19T08:11:41;100740.41;;;4.38;100.00
64521;BME280;50896;46.714;17.322;2023-11-19T08:14:08;100754.09;;;4.54;100.00
64521;BME280;50896;46.714;17.322;2023-11-19T08:16:35;100750.66;;;4.54;100.00
64521;BME280;50896;46.714;17.322;2023-11-19T08:19:03;100734.84;;;4.54;100.00
64521;BME280;50896;46.714;17.322;2023-11-19T08:21:30;100709.97;;;4.58;100.00
64521;BME280;50896;46.714;17.322;2023-11-19T08:23:57;100686.25;;;4.58;100.00
64521;BME280;50896;46.714;17.322;2023-11-19T08:26:24;100687.34;;;4.55;100.00
64521;BME280;50896;46.714;17.322;2023-11-19T08:28:51;100705.75;;;4.55;100.00
64521;BME280;50896;46.714;17.322;2023-11-19T08:31:18;100694.84;;;4.49;100.00
64521;BME280;50896;46.714;17.322;2023-11-19T08:33:45;100687.78;;;4.49;100.00
64521;BME280;50896;46.714;17.322;2023-11-19T08:36:16;100663.25;;;4.49;100.00
64521;BME280;50896;46.714;17.322;2023-11-19T08:38:44;100665.19;;;4.58;100.00
64521;BME280;50896;46.714;17.322;2023-11-19T08:41:10;100669.03;;;4.54;100.00
64521;BME280;50896;46.714;17.322;2023-11-19T08:43:37;100683.25;;;4.51;100.00
64521;BME280;50896;46.714;17.322;2023-11-19T08:46:12;100694.38;;;4.55;100.00
64521;BME280;50896;46.714;17.322;2023-11-19T08:48:39;100710.31;;;4.65;100.00
64521;BME280;50896;46.714;17.322;2023-11-19T08:51:06;100698.94;;;4.64;100.00
64521;BME280;50896;46.714;17.322;2023-11-19T08:53:33;100686.28;;;4.69;100.00
64521;BME280;50896;46.714;17.322;2023-11-19T08:56:01;100702.22;;;4.79;100.00
64521;BME280;50896;46.714;17.322;2023-11-19T08:58:29;100710.00;;;4.81;100.00
64521;BME280;50896;46.714;17.322;2023-11-19T09:00:57;100707.00;;;4.74;100.00
64521;BME280;50896;46.714;17.322;2023-11-19T09:03:25;100688.31;;;4.77;100.00
64521;BME280;50896;46.714;17.322;2023-11-19T09:05:57;100676.25;;;4.86;100.00
64521;BME280;50896;46.714;17.322;2023-11-19T09:08:24;100660.44;;;4.86;100.00
64521;BME280;50896;46.714;17.322;2023-11-19T09:10:51;100687.97;;;4.82;100.00
64521;BME280;50896;46.714;17.322;2023-11-19T09:13:18;100678.16;;;4.84;100.00
64521;BME280;50896;46.714;17.322;2023-11-19T09:15:44;100672.63;;;4.87;100.00
64521;BME280;50896;46.714;17.322;2023-11-19T09:18:11;100687.00;;;4.83;100.00
64521;BME280;50896;46.714;17.322;2023-11-19T09:20:38;100687.72;;;4.85;100.00
64521;BME280;50896;46.714;17.322;2023-11-19T09:23:06;100683.78;;;4.90;100.00
64521;BME280;50896;46.714;17.322;2023-11-19T09:25:33;100669.66;;;4.91;100.00
64521;BME280;50896;46.714;17.322;2023-11-19T09:28:03;100664.84;;;4.96;100.00
64521;BME280;50896;46.714;17.322;2023-11-19T09:30:30;100648.59;;;4.91;100.00
64521;BME280;50896;46.714;17.322;2023-11-19T09:33:00;100645.81;;;4.93;100.00
64521;BME280;50896;46.714;17.322;2023-11-19T09:35:27;100641.38;;;4.93;100.00
64521;BME280;50896;46.714;17.322;2023-11-19T09:37:54;100636.22;;;5.03;100.00
64521;BME280;50896;46.714;17.322;2023-11-19T09:40:21;100628.31;;;5.03;100.00
64521;BME280;50896;46.714;17.322;2023-11-19T09:42:48;100630.25;;;5.12;100.00
64521;BME280;50896;46.714;17.322;2023-11-19T09:45:16;100627.72;;;5.22;100.00
64521;BME280;50896;46.714;17.322;2023-11-19T09:47:44;100624.00;;;5.25;100.00
64521;BME280;50896;46.714;17.322;2023-11-19T09:50:19;100634.78;;;5.33;100.00
64521;BME280;50896;46.714;17.322;2023-11-19T09:52:47;100633.09;;;5.32;100.00
64521;BME280;50896;46.714;17.322;2023-11-19T09:55:14;100643.13;;;5.38;100.00
64521;BME280;50896;46.714;17.322;2023-11-19T09:57:41;100644.81;;;5.39;100.00
64521;BME280;50896;46.714;17.322;2023-11-19T10:00:10;100643.22;;;5.48;100.00
64521;BME280;50896;46.714;17.322;2023-11-19T10:02:38;100621.66;;;5.54;100.00
64521;BME280;50896;46.714;17.322;2023-11-19T10:05:07;100611.94;;;5.55;100.00
64521;BME280;50896;46.714;17.322;2023-11-19T10:07:34;100620.06;;;5.63;100.00
64521;BME280;50896;46.714;17.322;2023-11-19T10:10:05;100608.28;;;5.67;100.00
64521;BME280;50896;46.714;17.322;2023-11-19T10:12:32;100608.63;;;5.74;100.00
64521;BME280;50896;46.714;17.322;2023-11-19T10:14:59;100595.53;;;5.84;100.00
64521;BME280;50896;46.714;17.322;2023-11-19T10:17:33;100591.25;;;5.71;100.00
64521;BME280;50896;46.714;17.322;2023-11-19T10:20:00;100603.22;;;5.75;100.00
64521;BME280;50896;46.714;17.322;2023-11-19T10:22:27;100610.41;;;5.73;100.00
64521;BME280;50896;46.714;17.322;2023-11-19T10:24:54;100597.22;;;5.73;100.00
64521;BME280;50896;46.714;17.322;2023-11-19T10:27:24;100570.84;;;5.73;100.00
64521;BME280;50896;46.714;17.322;2023-11-19T10:29:52;100552.06;;;5.67;100.00
64521;BME280;50896;46.714;17.322;2023-11-19T10:32:19;100561.63;;;5.68;100.00
64521;BME280;50896;46.714;17.322;2023-11-19T10:35:04;100568.34;;;5.72;100.00
64521;BME280;50896;46.714;17.322;2023-11-19T10:37:32;100570.16;;;5.71;100.00
64521;BME280;50896;46.714;17.322;2023-11-19T10:40:00;100574.22;;;5.75;100.00
64521;BME280;50896;46.714;17.322;2023-11-19T10:42:27;100571.56;;;5.75;100.00
64521;BME280;50896;46.714;17.322;2023-11-19T10:44:54;100565.78;;;5.81;100.00
64521;BME280;50896;46.714;17.322;2023-11-19T10:47:23;100542.94;;;5.92;100.00
64521;BME280;50896;46.714;17.322;2023-11-19T10:49:53;100528.53;;;5.96;100.00
64521;BME280;50896;46.714;17.322;2023-11-19T10:52:20;100528.75;;;6.04;100.00
64521;BME280;50896;46.714;17.322;2023-11-19T10:54:50;100523.72;;;6.32;100.00
64521;BME280;50896;46.714;17.322;2023-11-19T10:57:21;100526.09;;;6.66;100.00
64521;BME280;50896;46.714;17.322;2023-11-19T10:59:49;100523.25;;;6.89;95.24
64521;BME280;50896;46.714;17.322;2023-11-19T11:02:22;100515.06;;;7.21;91.08
64521;BME280;50896;46.714;17.322;2023-11-19T11:04:51;100515.38;;;7.47;86.49
64521;BME280;50896;46.714;17.322;2023-11-19T11:07:21;100523.00;;;7.70;85.76
64521;BME280;50896;46.714;17.322;2023-11-19T11:10:02;100513.94;;;7.82;81.72
64521;BME280;50896;46.714;17.322;2023-11-19T11:12:36;100498.56;;;8.06;81.42
64521;BME280;50896;46.714;17.322;2023-11-19T11:15:04;100507.91;;;8.57;76.11
64521;BME280;50896;46.714;17.322;2023-11-19T11:17:33;100498.63;;;10.05;66.47
64521;BME280;50896;46.714;17.322;2023-11-19T11:20:01;100468.81;;;11.38;58.34
64521;BME280;50896;46.714;17.322;2023-11-19T11:22:44;100456.47;;;12.82;53.13
64521;BME280;50896;46.714;17.322;2023-11-19T11:34:09;100432.34;;;13.60;48.37
64521;BME280;50896;46.714;17.322;2023-11-19T11:37:02;100421.66;;;13.45;48.89
64521;BME280;50896;46.714;17.322;2023-11-19T11:39:33;100440.50;;;13.82;47.86
64521;BME280;50896;46.714;17.322;2023-11-19T11:50:17;100433.91;;;10.49;58.32
64521;BME280;50896;46.714;17.322;2023-11-19T11:53:18;100442.81;;;9.71;62.12
64521;BME280;50896;46.714;17.322;2023-11-19T12:00:48;100458.09;;;8.79;69.16
64521;BME280;50896;46.714;17.322;2023-11-19T12:03:20;100457.84;;;8.72;68.62
64521;BME280;50896;46.714;17.322;2023-11-19T12:05:48;100454.00;;;8.84;70.87
64521;BME280;50896;46.714;17.322;2023-11-19T12:08:18;100438.44;;;9.17;68.63
64521;BME280;50896;46.714;17.322;2023-11-19T12:10:53;100433.97;;;9.62;65.93
64521;BME280;50896;46.714;17.322;2023-11-19T12:13:21;100426.94;;;9.35;67.36
64521;BME280;50896;46.714;17.322;2023-11-19T12:18:26;100404.25;;;9.14;68.88
64521;BME280;50896;46.714;17.322;2023-11-19T12:20:53;100399.56;;;9.08;71.30
64521;BME280;50896;46.714;17.322;2023-11-19T12:23:24;100383.13;;;8.86;72.19
64521;BME280;50896;46.714;17.322;2023-11-19T12:25:51;100380.00;;;8.73;71.99
64521;BME280;50896;46.714;17.322;2023-11-19T12:28:18;100385.94;;;8.67;70.97
64521;BME280;50896;46.714;17.322;2023-11-19T12:30:46;100382.66;;;8.55;73.69
64521;BME280;50896;46.714;17.322;2023-11-19T12:33:14;100390.34;;;8.48;75.08
64521;BME280;50896;46.714;17.322;2023-11-19T12:35:47;100376.44;;;8.46;74.52
64521;BME280;50896;46.714;17.322;2023-11-19T12:38:24;100369.59;;;8.44;72.65
64521;BME280;50896;46.714;17.322;2023-11-19T12:41:04;100374.13;;;8.33;76.63
64521;BME280;50896;46.714;17.322;2023-11-19T12:43:31;100375.09;;;8.32;75.61
64521;BME280;50896;46.714;17.322;2023-11-19T12:45:58;100379.66;;;8.40;76.43
64521;BME280;50896;46.714;17.322;2023-11-19T12:48:25;100388.28;;;8.42;75.79
64521;BME280;50896;46.714;17.322;2023-11-19T12:50:56;100383.03;;;8.32;75.93
64521;BME280;50896;46.714;17.322;2023-11-19T12:53:25;100378.72;;;8.31;78.23
64521;BME280;50896;46.714;17.322;2023-11-19T12:55:53;100373.06;;;8.26;77.51
64521;BME280;50896;46.714;17.322;2023-11-19T12:58:35;100363.88;;;8.20;79.19
64521;BME280;50896;46.714;17.322;2023-11-19T13:01:06;100373.09;;;8.16;80.41
64521;BME280;50896;46.714;17.322;2023-11-19T13:03:37;100374.75;;;8.17;79.63
64521;BME280;50896;46.714;17.322;2023-11-19T13:06:14;100374.38;;;8.12;80.73
64521;BME280;50896;46.714;17.322;2023-11-19T13:08:49;100382.03;;;8.15;82.44
64521;BME280;50896;46.714;17.322;2023-11-19T13:11:32;100374.34;;;8.22;78.99